KLGB

Long Beach / Daugherty Field / Airport

Long Beach, California, USA
METAR KLGB 181253Z AUTO 00000KT 9SM OVC018 13/12 A3018 RMK AO2 SLP218 T01330122 $
Observed Flight Rules
Dec-18 @ 12:53 UTC (56 minutes ago) Marginal Visual Flight Rules
Visibility Clouds
9 miles
  • Overcast at 1,800' AGL
Temperatures Readings
Current 13°C / 55°F
Dewpoint 12°C / 54°F
Humidity 94%
Altimeter 30.18" Hg
Pressure 1021.8 hPa
Elevation 10
METAR KLGB 181253Z AUTO 00000KT 9SM OVC018 13/12 A3018 RMK AO2 SLP218 T01330122 $
Observed Flight Rules
Dec-18 @ 12:53 UTC
(56 minutes ago)
MVFR
Clouds
  • Overcast at 1,800' AGL
Temperature Dewpoint
13°C / 55°F 12°C / 54°F
Humidity Altimeter Pressure
94% 30.18" Hg 1021.8 hPa